sensor_id;sensor_type;location;lat;lon;timestamp;temperature;humidity
28835;DHT22;15969;51.536;11.884;2023-02-01T00:01:39;4.90;99.90
28835;DHT22;15969;51.536;11.884;2023-02-01T00:04:09;4.90;99.90
28835;DHT22;15969;51.536;11.884;2023-02-01T00:06:39;4.80;99.90
28835;DHT22;15969;51.536;11.884;2023-02-01T00:09:09;4.80;99.90
28835;DHT22;15969;51.536;11.884;2023-02-01T00:11:40;4.80;99.90
28835;DHT22;15969;51.536;11.884;2023-02-01T00:14:08;4.90;99.90
28835;DHT22;15969;51.536;11.884;2023-02-01T00:16:35;4.90;99.90
28835;DHT22;15969;51.536;11.884;2023-02-01T00:19:12;4.90;99.90
28835;DHT22;15969;51.536;11.884;2023-02-01T00:21:44;4.90;99.90
28835;DHT22;15969;51.536;11.884;2023-02-01T00:24:10;4.90;99.90
28835;DHT22;15969;51.536;11.884;2023-02-01T00:26:39;4.90;99.90
28835;DHT22;15969;51.536;11.884;2023-02-01T00:29:17;5.00;99.90
28835;DHT22;15969;51.536;11.884;2023-02-01T00:31:44;5.00;99.90
28835;DHT22;15969;51.536;11.884;2023-02-01T00:34:13;5.00;99.90
28835;DHT22;15969;51.536;11.884;2023-02-01T00:36:41;5.00;99.90
28835;DHT22;15969;51.536;11.884;2023-02-01T00:39:08;5.00;99.90
28835;DHT22;15969;51.536;11.884;2023-02-01T00:41:34;5.00;99.90
28835;DHT22;15969;51.536;11.884;2023-02-01T00:44:00;5.00;99.90
28835;DHT22;15969;51.536;11.884;2023-02-01T00:46:27;5.00;99.90
28835;DHT22;15969;51.536;11.884;2023-02-01T00:48:53;5.00;99.90
28835;DHT22;15969;51.536;11.884;2023-02-01T00:51:21;5.10;99.90
28835;DHT22;15969;51.536;11.884;2023-02-01T00:53:49;5.00;99.90
28835;DHT22;15969;51.536;11.884;2023-02-01T00:56:15;5.00;99.90
28835;DHT22;15969;51.536;11.884;2023-02-01T00:58:41;5.00;99.90
28835;DHT22;15969;51.536;11.884;2023-02-01T01:03:49;5.00;99.90
28835;DHT22;15969;51.536;11.884;2023-02-01T01:06:20;5.00;99.90
28835;DHT22;15969;51.536;11.884;2023-02-01T01:08:52;5.00;99.90
28835;DHT22;15969;51.536;11.884;2023-02-01T01:11:21;5.00;99.90
28835;DHT22;15969;51.536;11.884;2023-02-01T01:13:50;5.00;99.90
28835;DHT22;15969;51.536;11.884;2023-02-01T01:16:17;5.00;99.90
28835;DHT22;15969;51.536;11.884;2023-02-01T01:18:43;5.10;99.90
28835;DHT22;15969;51.536;11.884;2023-02-01T01:21:12;5.00;99.90
28835;DHT22;15969;51.536;11.884;2023-02-01T01:23:38;5.00;99.90
28835;DHT22;15969;51.536;11.884;2023-02-01T01:26:09;5.00;99.90
28835;DHT22;15969;51.536;11.884;2023-02-01T01:28:36;5.10;99.90
28835;DHT22;15969;51.536;11.884;2023-02-01T01:31:02;5.10;99.90
28835;DHT22;15969;51.536;11.884;2023-02-01T01:33:28;5.00;99.90
28835;DHT22;15969;51.536;11.884;2023-02-01T01:35:54;5.00;99.90
28835;DHT22;15969;51.536;11.884;2023-02-01T01:38:19;5.10;99.90
28835;DHT22;15969;51.536;11.884;2023-02-01T01:40:46;5.10;99.90
28835;DHT22;15969;51.536;11.884;2023-02-01T01:43:17;5.10;99.90
28835;DHT22;15969;51.536;11.884;2023-02-01T01:45:45;5.20;99.90
28835;DHT22;15969;51.536;11.884;2023-02-01T01:48:21;5.10;99.90
28835;DHT22;15969;51.536;11.884;2023-02-01T01:51:03;5.10;99.90
28835;DHT22;15969;51.536;11.884;2023-02-01T01:53:34;5.10;99.90
28835;DHT22;15969;51.536;11.884;2023-02-01T01:56:04;5.20;99.90
28835;DHT22;15969;51.536;11.884;2023-02-01T01:58:31;5.20;99.90
28835;DHT22;15969;51.536;11.884;2023-02-01T02:00:58;5.20;99.90
28835;DHT22;15969;51.536;11.884;2023-02-01T02:03:35;5.10;99.90
28835;DHT22;15969;51.536;11.884;2023-02-01T02:06:06;5.10;99.90
28835;DHT22;15969;51.536;11.884;2023-02-01T02:08:45;5.00;99.90
28835;DHT22;15969;51.536;11.884;2023-02-01T02:11:12;5.00;99.90
28835;DHT22;15969;51.536;11.884;2023-02-01T02:13:42;5.00;99.90
28835;DHT22;15969;51.536;11.884;2023-02-01T02:21:57;5.10;99.90
28835;DHT22;15969;51.536;11.884;2023-02-01T02:27:52;5.10;99.90
28835;DHT22;15969;51.536;11.884;2023-02-01T02:30:40;5.10;99.90
28835;DHT22;15969;51.536;11.884;2023-02-01T02:36:37;5.10;99.90
28835;DHT22;15969;51.536;11.884;2023-02-01T02:39:32;5.10;99.90
28835;DHT22;15969;51.536;11.884;2023-02-01T02:45:22;5.20;99.90
28835;DHT22;15969;51.536;11.884;2023-02-01T02:48:32;5.10;99.90
28835;DHT22;15969;51.536;11.884;2023-02-01T02:51:14;5.10;99.90
28835;DHT22;15969;51.536;11.884;2023-02-01T02:54:16;5.10;99.90
28835;DHT22;15969;51.536;11.884;2023-02-01T02:57:25;5.20;99.90
28835;DHT22;15969;51.536;11.884;2023-02-01T03:00:18;5.20;99.90
28835;DHT22;15969;51.536;11.884;2023-02-01T03:03:04;5.20;99.90
28835;DHT22;15969;51.536;11.884;2023-02-01T03:05:49;5.20;99.90
28835;DHT22;15969;51.536;11.884;2023-02-01T03:13:51;5.30;99.90
28835;DHT22;15969;51.536;11.884;2023-02-01T03:19:03;5.30;99.90
28835;DHT22;15969;51.536;11.884;2023-02-01T03:21:38;5.30;99.90
28835;DHT22;15969;51.536;11.884;2023-02-01T03:24:14;5.30;99.90
28835;DHT22;15969;51.536;11.884;2023-02-01T03:26:53;5.30;99.90
28835;DHT22;15969;51.536;11.884;2023-02-01T03:29:25;5.30;99.90
28835;DHT22;15969;51.536;11.884;2023-02-01T03:31:55;5.30;99.90
28835;DHT22;15969;51.536;11.884;2023-02-01T03:34:21;5.30;99.90
28835;DHT22;15969;51.536;11.884;2023-02-01T03:36:50;5.40;99.90
28835;DHT22;15969;51.536;11.884;2023-02-01T03:39:35;5.30;99.90
28835;DHT22;15969;51.536;11.884;2023-02-01T03:42:09;5.30;99.90
28835;DHT22;15969;51.536;11.884;2023-02-01T03:45:05;5.30;99.90
28835;DHT22;15969;51.536;11.884;2023-02-01T03:47:37;5.40;99.90
28835;DHT22;15969;51.536;11.884;2023-02-01T03:50:07;5.40;99.90
28835;DHT22;15969;51.536;11.884;2023-02-01T03:53:05;5.30;99.90
28835;DHT22;15969;51.536;11.884;2023-02-01T03:55:32;5.40;99.90
28835;DHT22;15969;51.536;11.884;2023-02-01T03:58:05;5.40;99.90
28835;DHT22;15969;51.536;11.884;2023-02-01T04:00:33;5.40;99.90
28835;DHT22;15969;51.536;11.884;2023-02-01T04:02:59;5.40;99.90
28835;DHT22;15969;51.536;11.884;2023-02-01T04:05:25;5.40;99.90
28835;DHT22;15969;51.536;11.884;2023-02-01T04:07:50;5.50;99.90
28835;DHT22;15969;51.536;11.884;2023-02-01T04:10:16;5.50;99.90
28835;DHT22;15969;51.536;11.884;2023-02-01T04:12:42;5.50;99.90
28835;DHT22;15969;51.536;11.884;2023-02-01T04:15:08;5.60;99.90
28835;DHT22;15969;51.536;11.884;2023-02-01T04:17:34;5.50;99.90
28835;DHT22;15969;51.536;11.884;2023-02-01T04:20:00;5.60;99.90
28835;DHT22;15969;51.536;11.884;2023-02-01T04:22:25;5.50;99.90
28835;DHT22;15969;51.536;11.884;2023-02-01T04:24:51;5.50;99.90
28835;DHT22;15969;51.536;11.884;2023-02-01T04:27:17;5.50;99.90
28835;DHT22;15969;51.536;11.884;2023-02-01T04:29:42;5.50;99.90
28835;DHT22;15969;51.536;11.884;2023-02-01T04:32:10;5.50;99.90
28835;DHT22;15969;51.536;11.884;2023-02-01T04:34:36;5.50;99.90
28835;DHT22;15969;51.536;11.884;2023-02-01T04:37:01;5.50;99.90
28835;DHT22;15969;51.536;11.884;2023-02-01T04:39:27;5.50;99.90
28835;DHT22;15969;51.536;11.884;2023-02-01T04:41:53;5.50;99.90
28835;DHT22;15969;51.536;11.884;2023-02-01T04:44:19;5.50;99.90
28835;DHT22;15969;51.536;11.884;2023-02-01T04:46:46;5.50;99.90
28835;DHT22;15969;51.536;11.884;2023-02-01T04:49:13;5.50;99.90
28835;DHT22;15969;51.536;11.884;2023-02-01T04:51:39;5.50;99.90
28835;DHT22;15969;51.536;11.884;2023-02-01T04:54:06;5.50;99.90
28835;DHT22;15969;51.536;11.884;2023-02-01T04:56:32;5.50;99.90
28835;DHT22;15969;51.536;11.884;2023-02-01T04:59:00;5.50;99.90
28835;DHT22;15969;51.536;11.884;2023-02-01T05:01:28;5.50;99.90
28835;DHT22;15969;51.536;11.884;2023-02-01T05:03:53;5.50;99.90
28835;DHT22;15969;51.536;11.884;2023-02-01T05:06:20;5.50;99.90
28835;DHT22;15969;51.536;11.884;2023-02-01T05:08:46;5.30;99.90
28835;DHT22;15969;51.536;11.884;2023-02-01T05:11:11;5.40;99.90
28835;DHT22;15969;51.536;11.884;2023-02-01T05:13:57;5.40;99.90
28835;DHT22;15969;51.536;11.884;2023-02-01T05:16:24;5.40;99.90
28835;DHT22;15969;51.536;11.884;2023-02-01T05:18:50;5.40;99.90
28835;DHT22;15969;51.536;11.884;2023-02-01T05:21:15;5.30;99.90
28835;DHT22;15969;51.536;11.884;2023-02-01T05:23:41;5.30;99.90
28835;DHT22;15969;51.536;11.884;2023-02-01T05:26:25;5.30;99.90
28835;DHT22;15969;51.536;11.884;2023-02-01T05:28:51;5.30;99.90
28835;DHT22;15969;51.536;11.884;2023-02-01T05:31:17;5.30;99.90
28835;DHT22;15969;51.536;11.884;2023-02-01T05:33:43;5.20;99.90
28835;DHT22;15969;51.536;11.884;2023-02-01T05:36:09;5.20;99.90
28835;DHT22;15969;51.536;11.884;2023-02-01T05:38:34;5.20;99.90
28835;DHT22;15969;51.536;11.884;2023-02-01T05:41:00;5.20;99.90
28835;DHT22;15969;51.536;11.884;2023-02-01T05:43:26;5.20;99.90
28835;DHT22;15969;51.536;11.884;2023-02-01T05:45:52;5.10;99.90
28835;DHT22;15969;51.536;11.884;2023-02-01T05:48:18;5.20;99.90
28835;DHT22;15969;51.536;11.884;2023-02-01T05:50:44;5.20;99.90
28835;DHT22;15969;51.536;11.884;2023-02-01T05:53:09;5.30;99.90
28835;DHT22;15969;51.536;11.884;2023-02-01T05:55:36;5.30;99.90
28835;DHT22;15969;51.536;11.884;2023-02-01T05:58:02;5.40;99.90
28835;DHT22;15969;51.536;11.884;2023-02-01T06:00:28;5.30;99.90
28835;DHT22;15969;51.536;11.884;2023-02-01T06:02:54;5.40;99.90
28835;DHT22;15969;51.536;11.884;2023-02-01T06:05:19;5.40;99.90
28835;DHT22;15969;51.536;11.884;2023-02-01T06:07:45;5.40;99.90
28835;DHT22;15969;51.536;11.884;2023-02-01T06:10:11;5.30;99.90
28835;DHT22;15969;51.536;11.884;2023-02-01T06:12:37;5.30;99.90
28835;DHT22;15969;51.536;11.884;2023-02-01T06:15:03;5.30;99.90
28835;DHT22;15969;51.536;11.884;2023-02-01T06:17:29;5.30;99.90
28835;DHT22;15969;51.536;11.884;2023-02-01T06:19:55;5.30;99.90
28835;DHT22;15969;51.536;11.884;2023-02-01T06:22:20;5.30;99.90
28835;DHT22;15969;51.536;11.884;2023-02-01T06:24:47;5.30;99.90
28835;DHT22;15969;51.536;11.884;2023-02-01T06:27:14;5.30;99.90
28835;DHT22;15969;51.536;11.884;2023-02-01T06:29:40;5.30;99.90
28835;DHT22;15969;51.536;11.884;2023-02-01T06:32:05;5.30;99.90
28835;DHT22;15969;51.536;11.884;2023-02-01T06:34:31;5.30;99.90
28835;DHT22;15969;51.536;11.884;2023-02-01T06:36:57;5.40;99.90
28835;DHT22;15969;51.536;11.884;2023-02-01T06:39:23;5.30;99.90
28835;DHT22;15969;51.536;11.884;2023-02-01T06:41:49;5.40;99.90
28835;DHT22;15969;51.536;11.884;2023-02-01T06:44:15;5.30;99.90
28835;DHT22;15969;51.536;11.884;2023-02-01T06:46:41;5.30;99.90
28835;DHT22;15969;51.536;11.884;2023-02-01T06:49:07;5.30;99.90
28835;DHT22;15969;51.536;11.884;2023-02-01T06:51:33;5.30;99.90
28835;DHT22;15969;51.536;11.884;2023-02-01T06:54:00;5.30;99.90
28835;DHT22;15969;51.536;11.884;2023-02-01T06:56:26;5.30;99.90
28835;DHT22;15969;51.536;11.884;2023-02-01T06:58:52;5.40;99.90
28835;DHT22;15969;51.536;11.884;2023-02-01T07:01:19;5.40;99.90
28835;DHT22;15969;51.536;11.884;2023-02-01T07:03:50;5.40;99.90
28835;DHT22;15969;51.536;11.884;2023-02-01T07:06:17;5.40;99.90
28835;DHT22;15969;51.536;11.884;2023-02-01T07:08:43;5.40;99.90
28835;DHT22;15969;51.536;11.884;2023-02-01T07:11:11;5.40;99.90
28835;DHT22;15969;51.536;11.884;2023-02-01T07:13:38;5.50;99.90
28835;DHT22;15969;51.536;11.884;2023-02-01T07:16:06;5.50;99.90
28835;DHT22;15969;51.536;11.884;2023-02-01T07:18:34;5.50;99.90
28835;DHT22;15969;51.536;11.884;2023-02-01T07:21:00;5.50;99.90
28835;DHT22;15969;51.536;11.884;2023-02-01T07:23:27;5.50;99.90
28835;DHT22;15969;51.536;11.884;2023-02-01T07:25:57;5.50;99.90
28835;DHT22;15969;51.536;11.884;2023-02-01T07:28:24;5.50;99.90
28835;DHT22;15969;51.536;11.884;2023-02-01T07:30:51;5.60;99.90
28835;DHT22;15969;51.536;11.884;2023-02-01T07:33:21;5.60;99.90
28835;DHT22;15969;51.536;11.884;2023-02-01T07:35:49;5.60;99.90
28835;DHT22;15969;51.536;11.884;2023-02-01T07:38:16;5.70;99.90
28835;DHT22;15969;51.536;11.884;2023-02-01T07:40:42;5.70;99.90
28835;DHT22;15969;51.536;11.884;2023-02-01T07:43:08;5.70;99.90
28835;DHT22;15969;51.536;11.884;2023-02-01T07:45:35;5.70;99.90
28835;DHT22;15969;51.536;11.884;2023-02-01T07:48:01;5.80;99.90
28835;DHT22;15969;51.536;11.884;2023-02-01T07:50:27;5.80;99.90
28835;DHT22;15969;51.536;11.884;2023-02-01T07:52:53;5.80;99.90
28835;DHT22;15969;51.536;11.884;2023-02-01T07:55:20;5.80;99.90
28835;DHT22;15969;51.536;11.884;2023-02-01T07:57:46;5.80;99.90
28835;DHT22;15969;51.536;11.884;2023-02-01T08:00:12;5.90;99.90
28835;DHT22;15969;51.536;11.884;2023-02-01T08:03:00;5.90;99.90
28835;DHT22;15969;51.536;11.884;2023-02-01T08:05:26;5.80;99.90
28835;DHT22;15969;51.536;11.884;2023-02-01T08:07:52;5.90;99.90
28835;DHT22;15969;51.536;11.884;2023-02-01T08:10:18;5.90;99.90
28835;DHT22;15969;51.536;11.884;2023-02-01T08:12:44;5.90;99.90
28835;DHT22;15969;51.536;11.884;2023-02-01T08:15:17;5.90;99.90
28835;DHT22;15969;51.536;11.884;2023-02-01T08:17:48;5.90;99.90
28835;DHT22;15969;51.536;11.884;2023-02-01T08:20:14;5.90;99.90
28835;DHT22;15969;51.536;11.884;2023-02-01T08:22:40;5.90;99.90
28835;DHT22;15969;51.536;11.884;2023-02-01T08:25:06;5.80;99.90
28835;DHT22;15969;51.536;11.884;2023-02-01T08:27:33;5.80;99.90
28835;DHT22;15969;51.536;11.884;2023-02-01T08:29:59;5.80;99.90
28835;DHT22;15969;51.536;11.884;2023-02-01T08:32:25;5.80;99.90
28835;DHT22;15969;51.536;11.884;2023-02-01T08:34:51;5.70;99.90
28835;DHT22;15969;51.536;11.884;2023-02-01T08:37:17;5.80;99.90
28835;DHT22;15969;51.536;11.884;2023-02-01T08:39:43;5.70;99.90
28835;DHT22;15969;51.536;11.884;2023-02-01T08:42:10;5.70;99.90
28835;DHT22;15969;51.536;11.884;2023-02-01T08:44:54;5.70;99.90
28835;DHT22;15969;51.536;11.884;2023-02-01T08:47:20;5.70;99.90
28835;DHT22;15969;51.536;11.884;2023-02-01T08:49:46;5.70;99.90
28835;DHT22;15969;51.536;11.884;2023-02-01T08:52:11;5.60;99.90
28835;DHT22;15969;51.536;11.884;2023-02-01T08:54:37;5.60;99.90
28835;DHT22;15969;51.536;11.884;2023-02-01T08:57:04;5.60;99.90
28835;DHT22;15969;51.536;11.884;2023-02-01T08:59:30;5.60;99.90
28835;DHT22;15969;51.536;11.884;2023-02-01T09:01:56;5.60;99.90
28835;DHT22;15969;51.536;11.884;2023-02-01T09:04:21;5.70;99.90
28835;DHT22;15969;51.536;11.884;2023-02-01T09:06:47;5.50;99.90
28835;DHT22;15969;51.536;11.884;2023-02-01T09:09:13;5.60;99.90
28835;DHT22;15969;51.536;11.884;2023-02-01T09:11:38;5.60;99.90
28835;DHT22;15969;51.536;11.884;2023-02-01T09:14:04;5.70;99.90
28835;DHT22;15969;51.536;11.884;2023-02-01T09:16:30;5.70;99.90
28835;DHT22;15969;51.536;11.884;2023-02-01T09:18:55;5.80;99.90
28835;DHT22;15969;51.536;11.884;2023-02-01T09:21:21;5.80;99.90
28835;DHT22;15969;51.536;11.884;2023-02-01T09:23:47;5.90;99.90
28835;DHT22;15969;51.536;11.884;2023-02-01T09:26:14;5.90;99.90
28835;DHT22;15969;51.536;11.884;2023-02-01T09:28:40;5.90;99.90
28835;DHT22;15969;51.536;11.884;2023-02-01T09:31:05;6.00;99.90
28835;DHT22;15969;51.536;11.884;2023-02-01T09:33:31;6.00;99.90
28835;DHT22;15969;51.536;11.884;2023-02-01T09:36:02;6.10;99.90
28835;DHT22;15969;51.536;11.884;2023-02-01T09:38:30;6.20;99.90
28835;DHT22;15969;51.536;11.884;2023-02-01T09:40:57;6.20;99.90
28835;DHT22;15969;51.536;11.884;2023-02-01T09:43:53;6.30;99.90
28835;DHT22;15969;51.536;11.884;2023-02-01T09:46:27;6.40;99.90
28835;DHT22;15969;51.536;11.884;2023-02-01T09:48:55;6.50;99.90
28835;DHT22;15969;51.536;11.884;2023-02-01T09:51:28;6.50;99.90
28835;DHT22;15969;51.536;11.884;2023-02-01T09:56:46;6.70;99.90
28835;DHT22;15969;51.536;11.884;2023-02-01T10:02:26;6.80;99.90
28835;DHT22;15969;51.536;11.884;2023-02-01T10:04:59;6.90;99.90
28835;DHT22;15969;51.536;11.884;2023-02-01T10:07:30;7.00;99.90
28835;DHT22;15969;51.536;11.884;2023-02-01T10:10:10;7.10;99.90
28835;DHT22;15969;51.536;11.884;2023-02-01T10:15:52;7.20;99.90
28835;DHT22;15969;51.536;11.884;2023-02-01T10:19:04;7.30;99.90
28835;DHT22;15969;51.536;11.884;2023-02-01T10:22:04;7.40;99.90
28835;DHT22;15969;51.536;11.884;2023-02-01T10:24:53;7.40;99.90
28835;DHT22;15969;51.536;11.884;2023-02-01T10:27:35;7.40;99.90
28835;DHT22;15969;51.536;11.884;2023-02-01T10:30:23;7.40;99.90
28835;DHT22;15969;51.536;11.884;2023-02-01T10:32:55;7.50;99.90
28835;DHT22;15969;51.536;11.884;2023-02-01T10:35:29;7.60;99.90
28835;DHT22;15969;51.536;11.884;2023-02-01T10:38:00;7.70;99.90
28835;DHT22;15969;51.536;11.884;2023-02-01T10:40:27;7.80;99.90
28835;DHT22;15969;51.536;11.884;2023-02-01T10:42:58;7.90;99.90
28835;DHT22;15969;51.536;11.884;2023-02-01T10:45:29;7.90;99.90
28835;DHT22;15969;51.536;11.884;2023-02-01T10:47:57;8.00;99.90
28835;DHT22;15969;51.536;11.884;2023-02-01T10:50:46;8.00;99.90
28835;DHT22;15969;51.536;11.884;2023-02-01T10:53:26;8.10;99.90
28835;DHT22;15969;51.536;11.884;2023-02-01T10:55:57;8.30;99.90
28835;DHT22;15969;51.536;11.884;2023-02-01T10:58:28;8.40;99.90
28835;DHT22;15969;51.536;11.884;2023-02-01T11:00:58;8.40;99.90
28835;DHT22;15969;51.536;11.884;2023-02-01T11:08:50;8.40;99.90
28835;DHT22;15969;51.536;11.884;2023-02-01T11:11:23;8.40;99.90
28835;DHT22;15969;51.536;11.884;2023-02-01T11:13:58;8.40;99.90
28835;DHT22;15969;51.536;11.884;2023-02-01T11:16:38;8.40;99.90
28835;DHT22;15969;51.536;11.884;2023-02-01T11:19:05;8.40;99.90
28835;DHT22;15969;51.536;11.884;2023-02-01T11:21:34;8.40;99.90
28835;DHT22;15969;51.536;11.884;2023-02-01T11:24:02;8.60;99.90
28835;DHT22;15969;51.536;11.884;2023-02-01T11:26:29;8.70;99.90
28835;DHT22;15969;51.536;11.884;2023-02-01T11:29:00;8.90;99.90
28835;DHT22;15969;51.536;11.884;2023-02-01T11:31:29;8.90;99.90
28835;DHT22;15969;51.536;11.884;2023-02-01T11:33:59;8.90;99.90
28835;DHT22;15969;51.536;11.884;2023-02-01T11:36:32;8.90;99.90
28835;DHT22;15969;51.536;11.884;2023-02-01T11:42:01;9.00;99.90
28835;DHT22;15969;51.536;11.884;2023-02-01T11:49:52;9.00;99.90
28835;DHT22;15969;51.536;11.884;2023-02-01T11:55:42;9.00;99.90
28835;DHT22;15969;51.536;11.884;2023-02-01T11:58:49;9.00;99.90
28835;DHT22;15969;51.536;11.884;2023-02-01T12:01:37;9.10;99.90
28835;DHT22;15969;51.536;11.884;2023-02-01T12:04:56;9.10;99.90
28835;DHT22;15969;51.536;11.884;2023-02-01T12:10:42;9.30;99.90
28835;DHT22;15969;51.536;11.884;2023-02-01T12:13:20;9.30;99.90
28835;DHT22;15969;51.536;11.884;2023-02-01T12:28:04;9.30;99.90
28835;DHT22;15969;51.536;11.884;2023-02-01T12:40:42;9.20;99.90
28835;DHT22;15969;51.536;11.884;2023-02-01T12:43:24;9.20;99.90
28835;DHT22;15969;51.536;11.884;2023-02-01T12:46:04;9.10;99.90
28835;DHT22;15969;51.536;11.884;2023-02-01T12:48:39;9.00;99.90
28835;DHT22;15969;51.536;11.884;2023-02-01T12:51:26;9.00;99.90
28835;DHT22;15969;51.536;11.884;2023-02-01T12:54:18;8.90;99.90
28835;DHT22;15969;51.536;11.884;2023-02-01T12:56:59;8.90;99.90
28835;DHT22;15969;51.536;11.884;2023-02-01T12:59:44;8.80;99.90
28835;DHT22;15969;51.536;11.884;2023-02-01T13:03:00;8.80;99.90
28835;DHT22;15969;51.536;11.884;2023-02-01T13:05:53;8.80;99.90
28835;DHT22;15969;51.536;11.884;2023-02-01T13:11:37;8.80;99.90
28835;DHT22;15969;51.536;11.884;2023-02-01T13:14:05;8.90;99.90
28835;DHT22;15969;51.536;11.884;2023-02-01T13:17:10;9.00;99.90
28835;DHT22;15969;51.536;11.884;2023-02-01T13:22:34;8.90;99.90
28835;DHT22;15969;51.536;11.884;2023-02-01T13:27:38;8.90;99.90
28835;DHT22;15969;51.536;11.884;2023-02-01T13:30:30;8.90;99.90
28835;DHT22;15969;51.536;11.884;2023-02-01T13:39:39;14.20;92.70
28835;DHT22;15969;51.536;11.884;2023-02-01T13:45:16;15.70;85.30
28835;DHT22;15969;51.536;11.884;2023-02-01T13:47:47;14.60;84.40
28835;DHT22;15969;51.536;11.884;2023-02-01T13:50:25;13.60;86.50
28835;DHT22;15969;51.536;11.884;2023-02-01T13:53:02;12.60;88.90
28835;DHT22;15969;51.536;11.884;2023-02-01T13:55:38;12.00;90.40
28835;DHT22;15969;51.536;11.884;2023-02-01T13:58:14;11.60;91.00
28835;DHT22;15969;51.536;11.884;2023-02-01T14:00:49;11.10;91.70
28835;DHT22;15969;51.536;11.884;2023-02-01T14:03:42;11.00;92.20
28835;DHT22;15969;51.536;11.884;2023-02-01T14:11:38;10.70;92.70
28835;DHT22;15969;51.536;11.884;2023-02-01T14:19:30;14.20;87.40
28835;DHT22;15969;51.536;11.884;2023-02-01T14:22:46;14.00;86.10
28835;DHT22;15969;51.536;11.884;2023-02-01T14:24:51;13.70;86.00
28835;DHT22;15969;51.536;11.884;2023-02-01T14:27:23;13.40;86.90
28835;DHT22;15969;51.536;11.884;2023-02-01T14:29:58;13.00;87.10
28835;DHT22;15969;51.536;11.884;2023-02-01T14:32:34;13.00;87.80
28835;DHT22;15969;51.536;11.884;2023-02-01T14:35:07;12.20;88.30
28835;DHT22;15969;51.536;11.884;2023-02-01T14:37:41;11.60;90.60
28835;DHT22;15969;51.536;11.884;2023-02-01T14:50:34;9.50;97.80
28835;DHT22;15969;51.536;11.884;2023-02-01T14:58:42;9.10;99.90
28835;DHT22;15969;51.536;11.884;2023-02-01T15:01:24;9.00;99.90
28835;DHT22;15969;51.536;11.884;2023-02-01T15:04:15;8.90;99.90
28835;DHT22;15969;51.536;11.884;2023-02-01T15:06:54;8.70;99.90
28835;DHT22;15969;51.536;11.884;2023-02-01T15:09:37;8.50;99.90
28835;DHT22;15969;51.536;11.884;2023-02-01T15:12:15;8.40;99.90
28835;DHT22;15969;51.536;11.884;2023-02-01T15:15:23;8.30;99.90
28835;DHT22;15969;51.536;11.884;2023-02-01T15:17:57;8.10;99.90
28835;DHT22;15969;51.536;11.884;2023-02-01T15:20:31;8.00;99.90
28835;DHT22;15969;51.536;11.884;2023-02-01T15:25:35;7.90;99.90
28835;DHT22;15969;51.536;11.884;2023-02-01T15:28:03;7.80;99.90
28835;DHT22;15969;51.536;11.884;2023-02-01T15:30:34;7.80;99.90
28835;DHT22;15969;51.536;11.884;2023-02-01T15:33:06;7.70;99.90
28835;DHT22;15969;51.536;11.884;2023-02-01T15:41:01;7.60;99.90
28835;DHT22;15969;51.536;11.884;2023-02-01T15:43:31;6.90;99.90
28835;DHT22;15969;51.536;11.884;2023-02-01T15:46:00;6.40;99.90
28835;DHT22;15969;51.536;11.884;2023-02-01T15:48:32;5.90;99.90
28835;DHT22;15969;51.536;11.884;2023-02-01T15:51:22;5.80;99.90
28835;DHT22;15969;51.536;11.884;2023-02-01T15:54:07;5.40;99.90
28835;DHT22;15969;51.536;11.884;2023-02-01T15:56:36;5.40;99.90
28835;DHT22;15969;51.536;11.884;2023-02-01T15:59:12;5.30;99.90
28835;DHT22;15969;51.536;11.884;2023-02-01T16:01:40;5.20;99.90
28835;DHT22;15969;51.536;11.884;2023-02-01T16:04:25;5.10;99.90
28835;DHT22;15969;51.536;11.884;2023-02-01T16:07:00;5.10;99.90
28835;DHT22;15969;51.536;11.884;2023-02-01T16:09:37;5.10;99.90
28835;DHT22;15969;51.536;11.884;2023-02-01T16:12:32;5.10;99.90
28835;DHT22;15969;51.536;11.884;2023-02-01T16:15:01;5.00;99.90
28835;DHT22;15969;51.536;11.884;2023-02-01T16:17:27;5.00;99.90
28835;DHT22;15969;51.536;11.884;2023-02-01T16:19:53;5.00;99.90
28835;DHT22;15969;51.536;11.884;2023-02-01T16:22:19;5.00;99.90
28835;DHT22;15969;51.536;11.884;2023-02-01T16:24:45;4.90;99.90
28835;DHT22;15969;51.536;11.884;2023-02-01T16:27:10;4.90;99.90
28835;DHT22;15969;51.536;11.884;2023-02-01T16:29:36;4.90;99.90
28835;DHT22;15969;51.536;11.884;2023-02-01T16:32:02;4.90;99.90
28835;DHT22;15969;51.536;11.884;2023-02-01T16:34:28;4.90;99.90
28835;DHT22;15969;51.536;11.884;2023-02-01T16:36:54;4.90;99.90
28835;DHT22;15969;51.536;11.884;2023-02-01T16:39:23;4.90;99.90
28835;DHT22;15969;51.536;11.884;2023-02-01T16:41:49;4.90;99.90
28835;DHT22;15969;51.536;11.884;2023-02-01T16:44:15;4.90;99.90
28835;DHT22;15969;51.536;11.884;2023-02-01T16:46:43;4.90;99.90
28835;DHT22;15969;51.536;11.884;2023-02-01T16:49:28;4.90;99.90
28835;DHT22;15969;51.536;11.884;2023-02-01T16:51:57;5.00;99.90
28835;DHT22;15969;51.536;11.884;2023-02-01T16:54:23;4.90;99.90
28835;DHT22;15969;51.536;11.884;2023-02-01T16:56:49;4.90;99.90
28835;DHT22;15969;51.536;11.884;2023-02-01T16:59:15;4.90;99.90
28835;DHT22;15969;51.536;11.884;2023-02-01T17:01:41;4.90;99.90
28835;DHT22;15969;51.536;11.884;2023-02-01T17:04:08;4.90;99.90
28835;DHT22;15969;51.536;11.884;2023-02-01T17:06:35;4.90;99.90
28835;DHT22;15969;51.536;11.884;2023-02-01T17:09:05;4.90;99.90
28835;DHT22;15969;51.536;11.884;2023-02-01T17:11:31;4.90;99.90
28835;DHT22;15969;51.536;11.884;2023-02-01T17:14:09;5.00;99.90
28835;DHT22;15969;51.536;11.884;2023-02-01T17:16:40;5.00;99.90
28835;DHT22;15969;51.536;11.884;2023-02-01T17:19:15;5.00;99.90
28835;DHT22;15969;51.536;11.884;2023-02-01T17:21:47;5.00;99.90
28835;DHT22;15969;51.536;11.884;2023-02-01T17:24:22;5.10;99.90
28835;DHT22;15969;51.536;11.884;2023-02-01T17:26:49;5.10;99.90
28835;DHT22;15969;51.536;11.884;2023-02-01T17:29:16;5.10;99.90
28835;DHT22;15969;51.536;11.884;2023-02-01T17:31:44;5.10;99.90
28835;DHT22;15969;51.536;11.884;2023-02-01T17:34:13;5.10;99.90
28835;DHT22;15969;51.536;11.884;2023-02-01T17:36:44;5.10;99.90
28835;DHT22;15969;51.536;11.884;2023-02-01T17:39:11;5.20;99.90
28835;DHT22;15969;51.536;11.884;2023-02-01T17:42:01;5.20;99.90
28835;DHT22;15969;51.536;11.884;2023-02-01T17:44:28;5.30;99.90
28835;DHT22;15969;51.536;11.884;2023-02-01T17:46:53;5.30;99.90
28835;DHT22;15969;51.536;11.884;2023-02-01T17:49:21;5.40;99.90
28835;DHT22;15969;51.536;11.884;2023-02-01T17:51:47;5.40;99.90
28835;DHT22;15969;51.536;11.884;2023-02-01T17:54:15;5.30;99.90
28835;DHT22;15969;51.536;11.884;2023-02-01T17:56:42;5.30;99.90
28835;DHT22;15969;51.536;11.884;2023-02-01T17:59:08;5.20;99.90
28835;DHT22;15969;51.536;11.884;2023-02-01T18:01:34;5.10;99.90
28835;DHT22;15969;51.536;11.884;2023-02-01T18:03:59;5.20;99.90
28835;DHT22;15969;51.536;11.884;2023-02-01T18:06:26;5.10;99.90
28835;DHT22;15969;51.536;11.884;2023-02-01T18:08:52;5.10;99.90